Cairns International Airport
YBCS : now visible

Airfield :











YOU CAN JOIN US ON...

 
LOGIN :

Register | Disclaimer

   EN    FR    IT 

 









Legend :    VFR   Marginal VFR   IFR   Intensive IFR   Very Intensive IFR
Visi :
Ceiling :
>= 8 km
>= 3000ft
5 to 8 km
1000 to 3000 ft
1500m to 5 km
500 to 1000 ft
800 to 1500m
200 to 500 ft
< 800m
< 200 ft
Symbols :   Thunderstorms  Fog  Heavy snow  Heavy precipitations  Wind > 20 kt






- Airport Elevation : 10 ft
- IATA code : CNS


YBCS - Cairns International

CURRENT METAR :
  • 301700Z AUTO 17010KT 7000 -RA BKN018 OVC022 22/21 Q1013 RERA

EXPIRED METARs :
  • 301630Z AUTO 17010KT 6000 -RA BKN014 BKN019 OVC022 22/21 Q1013
  • 301615Z AUTO 17011KT 6000 -RA SCT014 OVC020 OVC025 22/21 Q1013
  • 301600Z AUTO 17012KT 9999 -RA BKN018 OVC023 22/21 Q1013
  • 301534Z AUTO 18012KT 9999 -RA BKN018 OVC029 22/21 Q1014 RERA
  • 301500Z AUTO 16012KT 9999 -RA SCT017 BKN024 BKN031 22/21 Q1014 RERA
  • 301430Z AUTO 17014KT 9999 -RA SCT019 SCT034 BKN052 22/21 Q1014 RERA
  • 301414Z AUTO 18013KT 9999 -RA SCT025 BKN040 BKN051 22/21 Q1014 RERA

TAF AMD TAF YBCS
Valid from the 30 at 15:00 until the 01 at 12:00 UTC


301402Z 3015/0112 17008KT 9999 -SHRA SCT008 BKN022
FM010000 13010KT 9999 -RA OVC025
FM010900 17008KT 9999 -RA OVC025
TEMPO 3015/0100 2000 +SHRA SCT008 BKN010
TEMPO 0100/0112 2000 RA SCT005 BKN010
YBBB FIR / Oceania



MET'MAP, your aeronautical weather chart ! - Copyright ORBIFLY December 2007 - Disclaimer

ORBIFLY MET'MAP TEAM :

Programming & Development : Alexandra Zaïnal
Original concept : Baudouin d'Aumeries
Technical & hardware support : Manuel Goepfert
Assistance : Marc-Olivier Méhu




SOURCES & CREDITS :

   NOAA       Earth
Advisory